createdAt,value
2019-02-08T00:01:09.493Z,4.30
2019-02-08T00:03:38.042Z,3.62
2019-02-08T00:06:06.599Z,3.65
2019-02-08T00:08:35.172Z,4.08
2019-02-08T00:11:03.740Z,4.42
2019-02-08T00:13:32.350Z,3.90
2019-02-08T00:16:00.913Z,4.10
2019-02-08T00:18:29.466Z,4.78
2019-02-08T00:20:58.060Z,6.53
2019-02-08T00:23:27.527Z,3.52
2019-02-08T00:25:56.165Z,4.60
2019-02-08T00:28:24.786Z,4.97
2019-02-08T00:30:53.356Z,4.05
2019-02-08T00:33:21.902Z,4.33
2019-02-08T00:35:50.500Z,4.05
2019-02-08T00:38:19.428Z,3.67
2019-02-08T00:40:47.969Z,4.05
2019-02-08T00:43:16.561Z,4.35
2019-02-08T00:45:45.121Z,4.90
2019-02-08T00:48:13.667Z,4.17
2019-02-08T00:50:42.245Z,3.80
2019-02-08T00:53:10.848Z,4.30
2019-02-08T00:55:39.676Z,3.87
2019-02-08T00:58:08.346Z,4.80
2019-02-08T01:00:36.897Z,3.47
2019-02-08T01:03:05.450Z,5.08
2019-02-08T01:05:34.033Z,3.98
2019-02-08T01:08:02.578Z,3.65
2019-02-08T01:10:31.153Z,4.83
2019-02-08T01:13:00.216Z,4.92
2019-02-08T01:15:28.854Z,4.33
2019-02-08T01:17:57.594Z,7.90
2019-02-08T01:20:26.164Z,4.22
2019-02-08T01:22:54.734Z,4.10
2019-02-08T01:25:24.305Z,3.80
2019-02-08T01:27:52.948Z,3.52
2019-02-08T01:30:26.695Z,4.10
2019-02-08T01:32:55.254Z,3.80
2019-02-08T01:35:24.861Z,3.92
2019-02-08T01:37:53.970Z,5.05
2019-02-08T01:40:24.997Z,4.20
2019-02-08T01:42:53.548Z,4.72
2019-02-08T01:45:23.851Z,4.87
2019-02-08T01:47:52.402Z,5.22
2019-02-08T01:50:22.720Z,4.80
2019-02-08T01:52:51.294Z,3.72
2019-02-08T01:55:19.872Z,4.62
2019-02-08T01:57:48.980Z,4.85
2019-02-08T02:00:19.857Z,5.20
2019-02-08T02:02:48.408Z,4.47
2019-02-08T02:05:16.962Z,5.03
2019-02-08T02:07:45.963Z,5.03
2019-02-08T02:10:36.396Z,5.00
2019-02-08T02:13:06.212Z,4.90
2019-02-08T02:15:34.850Z,4.20
2019-02-08T02:18:04.546Z,4.65
2019-02-08T02:20:36.061Z,3.95
2019-02-08T02:23:06.114Z,4.30
2019-02-08T02:25:34.684Z,3.67
2019-02-08T02:28:03.393Z,3.90
2019-02-08T02:30:33.653Z,4.33
2019-02-08T02:33:03.036Z,4.70
2019-02-08T02:35:31.929Z,4.12
2019-02-08T02:38:00.494Z,4.55
2019-02-08T02:40:29.032Z,3.90
2019-02-08T02:42:57.612Z,4.00
2019-02-08T02:45:28.486Z,4.65
2019-02-08T02:47:57.032Z,4.37
2019-02-08T02:50:25.605Z,3.72
2019-02-08T02:52:54.181Z,3.95
2019-02-08T02:55:23.951Z,4.28
2019-02-08T02:57:52.603Z,3.62
2019-02-08T03:00:32.864Z,3.37
2019-02-08T03:03:01.440Z,3.83
2019-02-08T03:05:30.025Z,4.60
2019-02-08T03:07:58.566Z,3.70
2019-02-08T03:10:27.156Z,4.40
2019-02-08T03:12:55.701Z,4.03
2019-02-08T03:15:24.605Z,3.98
2019-02-08T03:17:53.194Z,4.03
2019-02-08T03:20:21.779Z,3.72
2019-02-08T03:22:50.323Z,4.15
2019-02-08T03:25:21.107Z,3.85
2019-02-08T03:27:49.686Z,3.92
2019-02-08T03:30:26.456Z,4.28
2019-02-08T03:32:54.989Z,3.77
2019-02-08T03:35:24.045Z,4.67
2019-02-08T03:37:52.614Z,4.12
2019-02-08T03:40:25.607Z,4.17
2019-02-08T03:42:54.252Z,5.22
2019-02-08T03:45:23.014Z,4.80
2019-02-08T03:47:51.871Z,4.65
2019-02-08T03:50:20.991Z,4.17
2019-02-08T03:52:49.623Z,4.58
2019-02-08T03:55:19.431Z,4.70
2019-02-08T03:57:48.009Z,4.58
2019-02-08T04:00:26.487Z,4.53
2019-02-08T04:02:55.037Z,4.72
2019-02-08T04:05:23.586Z,3.90
2019-02-08T04:07:52.169Z,4.80
2019-02-08T04:10:21.307Z,4.30
2019-02-08T04:12:49.968Z,4.03
2019-02-08T04:15:18.573Z,4.15
2019-02-08T04:17:47.118Z,4.30
2019-02-08T04:20:16.614Z,4.20
2019-02-08T04:22:45.185Z,4.55
2019-02-08T04:25:14.635Z,4.20
2019-02-08T04:27:43.215Z,4.10
2019-02-08T04:30:15.615Z,3.92
2019-02-08T04:32:44.191Z,4.00
2019-02-08T04:35:12.735Z,4.85
2019-02-08T04:37:41.327Z,3.17
2019-02-08T04:40:10.004Z,3.58
2019-02-08T04:42:38.577Z,4.15
2019-02-08T04:45:07.880Z,3.92
2019-02-08T04:47:36.511Z,3.45
2019-02-08T04:50:06.991Z,4.70
2019-02-08T04:52:35.542Z,3.58
2019-02-08T04:55:04.883Z,4.30
2019-02-08T04:57:33.430Z,3.37
2019-02-08T05:00:02.016Z,3.45
2019-02-08T05:02:30.558Z,3.12
2019-02-08T05:04:59.107Z,3.22
2019-02-08T05:07:27.691Z,2.77
2019-02-08T05:09:56.238Z,2.95
2019-02-08T05:12:24.786Z,4.55
2019-02-08T05:14:53.378Z,3.20
2019-02-08T05:17:21.930Z,2.47
2019-02-08T05:19:50.473Z,2.67
2019-02-08T05:22:19.073Z,3.35
2019-02-08T05:24:47.622Z,3.33
2019-02-08T05:27:16.194Z,3.10
2019-02-08T05:29:44.779Z,2.55
2019-02-08T05:32:13.381Z,2.77
2019-02-08T05:34:42.302Z,2.83
2019-02-08T05:37:10.856Z,3.70
2019-02-08T05:39:39.442Z,2.90
2019-02-08T05:42:08.027Z,2.80
2019-02-08T05:44:36.572Z,2.85
2019-02-08T05:47:05.135Z,2.75
2019-02-08T05:49:33.727Z,3.02
2019-02-08T05:52:02.271Z,3.00
2019-02-08T05:54:37.427Z,2.83
2019-02-08T05:57:06.345Z,2.85
2019-02-08T05:59:37.862Z,4.35
2019-02-08T06:02:12.793Z,3.00
2019-02-08T06:12:28.242Z,2.58
2019-02-08T06:15:04.120Z,2.58
2019-02-08T06:17:33.216Z,3.10
2019-02-08T06:20:05.173Z,3.33
2019-02-08T06:22:43.486Z,2.17
2019-02-08T06:25:18.732Z,3.08
2019-02-08T06:27:57.548Z,2.55
2019-02-08T06:30:27.673Z,3.00
2019-02-08T06:32:56.196Z,2.60
2019-02-08T06:35:26.420Z,3.20
2019-02-08T06:37:54.991Z,2.62
2019-02-08T06:40:24.906Z,3.58
2019-02-08T06:42:53.461Z,2.83
2019-02-08T06:45:22.884Z,3.95
2019-02-08T06:47:51.539Z,2.90
2019-02-08T06:50:21.146Z,2.47
2019-02-08T06:52:49.695Z,2.67
2019-02-08T06:55:18.259Z,3.05
2019-02-08T06:57:51.984Z,2.67
2019-02-08T07:00:39.964Z,2.42
2019-02-08T07:03:26.313Z,2.27
2019-02-08T07:06:12.780Z,2.33
2019-02-08T07:08:52.631Z,3.40
2019-02-08T07:11:57.922Z,2.10
2019-02-08T07:15:06.811Z,2.17
2019-02-08T07:17:52.469Z,2.87
2019-02-08T07:20:40.032Z,1.98
2019-02-08T07:23:22.312Z,1.92
2019-02-08T07:26:06.151Z,2.40
2019-02-08T07:28:47.440Z,2.20
2019-02-08T07:31:33.923Z,1.85
2019-02-08T07:34:18.119Z,2.70
2019-02-08T07:37:02.514Z,2.75
2019-02-08T07:39:56.318Z,2.25
2019-02-08T07:45:23.477Z,2.25
2019-02-08T07:48:04.645Z,2.47
2019-02-08T07:50:52.244Z,2.02
2019-02-08T07:53:45.867Z,2.55
2019-02-08T07:56:26.252Z,2.87
2019-02-08T07:59:04.108Z,3.75
2019-02-08T08:01:48.447Z,3.05
2019-02-08T08:04:34.732Z,2.05
2019-02-08T08:07:37.584Z,2.60
2019-02-08T08:10:36.437Z,3.15
2019-02-08T08:13:30.150Z,2.22
2019-02-08T08:16:35.967Z,2.42
2019-02-08T08:19:15.996Z,2.40
2019-02-08T08:22:00.177Z,3.30
2019-02-08T08:24:48.430Z,2.95
2019-02-08T08:27:35.001Z,2.85
2019-02-08T08:30:15.095Z,2.90
2019-02-08T08:33:01.692Z,3.37
2019-02-08T08:35:47.942Z,3.40
2019-02-08T08:38:58.501Z,4.20
2019-02-08T08:42:11.030Z,2.83
2019-02-08T08:45:25.579Z,3.52
2019-02-08T08:48:37.461Z,2.90
2019-02-08T08:51:38.642Z,3.15
2019-02-08T08:54:44.484Z,3.12
2019-02-08T08:57:22.519Z,4.65
2019-02-08T09:00:41.774Z,3.47
2019-02-08T09:03:34.127Z,2.83
2019-02-08T09:06:32.513Z,3.52
2019-02-08T09:09:46.261Z,3.92
2019-02-08T09:13:05.100Z,3.60
2019-02-08T09:16:14.921Z,3.12
2019-02-08T09:19:19.805Z,3.20
2019-02-08T09:22:21.890Z,4.35
2019-02-08T09:25:08.255Z,3.58
2019-02-08T09:28:15.444Z,3.42
2019-02-08T09:31:15.505Z,3.40
2019-02-08T09:34:36.915Z,3.60
2019-02-08T09:37:50.013Z,3.67
2019-02-08T09:41:02.944Z,3.72
2019-02-08T09:44:07.301Z,5.62
2019-02-08T09:47:17.544Z,4.30
2019-02-08T09:50:29.457Z,3.90
2019-02-08T09:53:20.689Z,5.28
2019-02-08T09:56:20.675Z,4.92
2019-02-08T09:59:28.703Z,4.67
2019-02-08T10:02:25.537Z,3.72
2019-02-08T10:05:35.263Z,4.45
2019-02-08T10:08:55.464Z,5.22
2019-02-08T10:11:55.524Z,4.03
2019-02-08T10:15:01.717Z,4.20
2019-02-08T10:18:10.213Z,4.30
2019-02-08T10:21:07.198Z,4.37
2019-02-08T10:24:23.041Z,4.58
2019-02-08T10:27:39.053Z,3.77
2019-02-08T10:30:35.143Z,5.40
2019-02-08T10:33:44.633Z,3.92
2019-02-08T10:36:50.004Z,4.53
2019-02-08T10:40:04.726Z,4.70
2019-02-08T10:43:29.058Z,4.22
2019-02-08T10:46:35.191Z,4.42
2019-02-08T10:49:33.801Z,4.80
2019-02-08T10:52:39.472Z,3.33
2019-02-08T10:55:24.263Z,3.92
2019-02-08T10:58:22.287Z,4.25
2019-02-08T11:01:19.344Z,4.55
2019-02-08T11:04:16.686Z,3.80
2019-02-08T11:07:00.913Z,4.42
2019-02-08T11:10:05.999Z,3.87
2019-02-08T11:13:10.815Z,3.95
2019-02-08T11:16:33.026Z,3.72
2019-02-08T11:19:19.427Z,4.30
2019-02-08T11:21:49.602Z,3.58
2019-02-08T11:24:20.129Z,3.50
2019-02-08T11:26:52.387Z,3.65
2019-02-08T11:29:21.320Z,3.62
2019-02-08T11:31:50.174Z,3.80
2019-02-08T11:34:18.747Z,3.58
2019-02-08T11:36:47.336Z,4.25
2019-02-08T11:39:18.212Z,4.95
2019-02-08T11:41:47.758Z,4.10
2019-02-08T11:44:16.874Z,3.85
2019-02-08T11:46:46.686Z,4.20
2019-02-08T11:49:15.248Z,4.08
2019-02-08T11:51:43.815Z,5.22
2019-02-08T11:54:12.364Z,4.35
2019-02-08T11:56:40.921Z,6.90
2019-02-08T11:59:09.511Z,5.42
2019-02-08T12:01:41.372Z,6.75
2019-02-08T12:04:12.114Z,5.12
2019-02-08T12:06:43.123Z,3.92
2019-02-08T12:09:14.309Z,4.33
2019-02-08T12:11:44.357Z,3.83
2019-02-08T12:14:15.716Z,4.97
2019-02-08T12:16:44.289Z,4.47
2019-02-08T12:19:13.203Z,4.17
2019-02-08T12:21:42.109Z,4.60
2019-02-08T12:24:10.664Z,4.70
2019-02-08T12:26:39.261Z,4.60
2019-02-08T12:29:09.339Z,4.20
2019-02-08T12:31:38.262Z,4.58
2019-02-08T12:34:08.186Z,3.83
2019-02-08T12:36:37.103Z,4.08
2019-02-08T12:39:32.738Z,3.50
2019-02-08T12:42:37.344Z,4.47
2019-02-08T12:45:20.700Z,3.85
2019-02-08T12:47:54.469Z,5.65
2019-02-08T12:50:24.511Z,4.12
2019-02-08T12:52:53.492Z,4.00
2019-02-08T12:55:25.697Z,4.67
2019-02-08T12:58:01.446Z,5.53
2019-02-08T13:00:38.918Z,4.60
2019-02-08T13:03:21.112Z,5.28
2019-02-08T13:06:05.036Z,4.70
2019-02-08T13:08:36.185Z,5.37
2019-02-08T13:11:08.702Z,5.12
2019-02-08T13:13:44.849Z,4.90
2019-02-08T13:16:15.005Z,4.85
2019-02-08T13:18:50.290Z,4.45
2019-02-08T13:21:28.922Z,5.20
2019-02-08T13:28:04.464Z,4.87
2019-02-08T13:30:36.853Z,4.78
2019-02-08T13:33:11.313Z,5.27
2019-02-08T13:36:18.839Z,5.37
2019-02-08T13:39:10.464Z,4.65
2019-02-08T14:26:05.391Z,5.17
2019-02-08T14:45:00.573Z,5.67
2019-02-08T14:47:42.246Z,5.17
2019-02-08T14:50:23.030Z,5.65
2019-02-08T14:53:21.337Z,5.15
2019-02-08T14:55:55.311Z,5.58
2019-02-08T14:58:24.239Z,5.58
2019-02-08T15:00:52.794Z,6.20
2019-02-08T15:03:21.912Z,6.03
2019-02-08T15:05:50.838Z,5.62
2019-02-08T15:08:19.387Z,8.15
2019-02-08T15:10:49.264Z,7.47
2019-02-08T15:13:18.208Z,7.85
2019-02-08T15:15:46.755Z,8.33
2019-02-08T15:18:15.330Z,6.60
2019-02-08T15:20:43.955Z,8.10
2019-02-08T15:23:12.828Z,6.05
2019-02-08T15:25:41.385Z,5.72
2019-02-08T15:28:10.322Z,5.40
2019-02-08T15:30:38.864Z,5.12
2019-02-08T15:33:07.428Z,5.08
2019-02-08T15:35:36.004Z,5.25
2019-02-08T15:38:04.598Z,5.45
2019-02-08T15:40:39.340Z,5.40
2019-02-08T15:43:08.472Z,4.70
2019-02-08T15:45:37.062Z,3.83
2019-02-08T15:48:05.646Z,4.58
2019-02-08T15:50:34.243Z,4.87
2019-02-08T15:53:02.863Z,4.75
2019-02-08T15:55:34.076Z,5.85
2019-02-08T15:58:02.609Z,4.65
2019-02-08T16:00:31.240Z,7.60
2019-02-08T16:02:59.861Z,9.40
2019-02-08T16:05:28.714Z,7.28
2019-02-08T16:07:57.263Z,7.65
2019-02-08T16:10:25.810Z,4.08
2019-02-08T16:12:54.401Z,4.42
2019-02-08T16:15:24.752Z,5.28
2019-02-08T16:17:53.308Z,14.35
2019-02-08T16:20:22.853Z,8.90
2019-02-08T16:22:51.943Z,8.13
2019-02-08T16:25:21.489Z,5.30
2019-02-08T16:27:50.032Z,5.67
2019-02-08T16:30:20.766Z,4.20
2019-02-08T16:32:49.371Z,3.70
2019-02-08T16:35:19.850Z,3.58
2019-02-08T16:37:48.775Z,4.15
2019-02-08T16:40:19.444Z,4.42
2019-02-08T16:42:48.008Z,4.40
2019-02-08T16:45:22.340Z,3.67
2019-02-08T16:47:52.121Z,3.50
2019-02-08T16:50:23.398Z,4.30
2019-02-08T16:52:52.521Z,3.60
2019-02-08T16:55:21.663Z,3.80
2019-02-08T16:57:50.591Z,3.83
2019-02-08T17:01:20.866Z,4.25
2019-02-08T17:08:44.887Z,4.80
2019-02-08T18:22:47.157Z,8.40
2019-02-08T18:25:16.280Z,5.12
2019-02-08T18:27:44.846Z,5.00
2019-02-08T18:30:14.778Z,4.35
2019-02-08T18:32:43.349Z,4.10
2019-02-08T18:35:12.279Z,4.75
2019-02-08T18:37:40.833Z,4.10
2019-02-08T18:40:11.518Z,4.33
2019-02-08T18:42:40.642Z,4.25
2019-02-08T18:45:11.399Z,4.85
2019-02-08T18:47:39.969Z,3.70
2019-02-08T18:50:13.792Z,2.98
2019-02-08T18:52:42.712Z,3.60
2019-02-08T18:55:11.268Z,3.90
2019-02-08T18:57:40.620Z,3.47
2019-02-08T19:00:12.954Z,3.27
2019-02-08T19:02:41.505Z,3.53
2019-02-08T19:05:10.975Z,3.60
2019-02-08T19:07:39.509Z,3.62
2019-02-08T19:10:10.524Z,3.30
2019-02-08T19:12:39.110Z,3.17
2019-02-08T19:15:08.726Z,3.45
2019-02-08T19:17:37.266Z,4.00
2019-02-08T19:20:06.979Z,3.87
2019-02-08T19:22:35.588Z,4.22
2019-02-08T19:25:05.459Z,3.58
2019-02-08T19:27:34.035Z,4.12
2019-02-08T19:30:02.574Z,3.70
2019-02-08T19:32:31.116Z,3.37
2019-02-08T19:34:59.701Z,3.62
2019-02-08T19:37:28.245Z,3.30
2019-02-08T19:39:56.817Z,3.37
2019-02-08T19:42:26.027Z,2.85
2019-02-08T19:44:54.575Z,3.77
2019-02-08T19:47:23.194Z,3.50
2019-02-08T19:49:51.766Z,2.95
2019-02-08T19:52:20.352Z,5.10
2019-02-08T19:54:48.897Z,3.10
2019-02-08T19:57:17.432Z,2.90
2019-02-08T19:59:46.022Z,4.12
2019-02-08T20:02:14.568Z,3.17
2019-02-08T20:04:43.122Z,3.50
2019-02-08T20:07:11.681Z,3.95
2019-02-08T20:09:40.314Z,3.55
2019-02-08T20:12:08.890Z,4.00
2019-02-08T20:14:37.424Z,3.42
2019-02-08T20:17:05.970Z,3.33
2019-02-08T20:19:35.079Z,3.50
2019-02-08T20:22:03.989Z,3.62
2019-02-08T20:24:32.558Z,3.30
2019-02-08T20:27:01.135Z,2.85
2019-02-08T20:29:29.690Z,2.75
2019-02-08T20:31:58.224Z,3.45
2019-02-08T20:34:26.800Z,3.27
2019-02-08T20:36:55.359Z,3.77
2019-02-08T20:39:23.918Z,3.17
2019-02-08T20:41:52.495Z,3.15
2019-02-08T20:44:21.548Z,2.40
2019-02-08T20:46:50.411Z,5.00
2019-02-08T20:49:19.306Z,3.35
2019-02-08T20:51:48.241Z,3.15
2019-02-08T20:54:17.165Z,2.72
2019-02-08T20:56:47.265Z,4.05
2019-02-08T20:59:16.643Z,2.17
2019-02-08T21:01:45.884Z,2.77
2019-02-08T21:04:15.491Z,3.08
2019-02-08T21:06:44.824Z,2.72
2019-02-08T21:09:14.207Z,3.95
2019-02-08T21:11:43.226Z,3.75
2019-02-08T21:14:12.203Z,6.62
2019-02-08T21:16:41.117Z,3.83
2019-02-08T21:19:09.703Z,2.75
2019-02-08T21:21:38.262Z,2.87
2019-02-08T21:24:06.844Z,3.00
2019-02-08T21:26:35.393Z,3.10
2019-02-08T21:29:04.329Z,3.37
2019-02-08T21:31:32.997Z,3.20
2019-02-08T21:34:02.699Z,3.40
2019-02-08T21:36:38.883Z,3.33
2019-02-08T21:39:02.349Z,2.87
2019-02-08T21:41:31.548Z,3.65
2019-02-08T21:44:00.465Z,2.95
2019-02-08T21:46:29.764Z,3.20
2019-02-08T21:48:58.689Z,3.33
2019-02-08T21:51:28.309Z,2.67
2019-02-08T21:53:58.212Z,3.10
2019-02-08T21:56:27.644Z,3.35
2019-02-08T21:58:56.457Z,2.55
2019-02-08T22:01:25.745Z,3.00
2019-02-08T22:03:54.725Z,2.87
2019-02-08T22:06:23.651Z,2.47
2019-02-08T22:08:52.612Z,2.22
2019-02-08T22:11:21.886Z,2.70
2019-02-08T22:13:50.784Z,3.20
2019-02-08T22:16:20.326Z,3.00
2019-02-08T22:18:49.216Z,2.60
2019-02-08T22:21:18.526Z,3.30
2019-02-08T22:23:48.121Z,2.17
2019-02-08T22:26:17.936Z,2.52
2019-02-08T22:28:46.570Z,2.62
2019-02-08T22:31:15.104Z,4.92
2019-02-08T22:33:44.029Z,3.55
2019-02-08T22:36:12.614Z,2.98
2019-02-08T22:38:41.161Z,3.40
2019-02-08T22:41:09.749Z,2.95
2019-02-08T22:43:38.296Z,2.75
2019-02-08T22:46:06.842Z,3.37
2019-02-08T22:48:35.423Z,2.80
2019-02-08T22:51:03.974Z,2.92
2019-02-08T22:53:32.545Z,3.10
2019-02-08T22:56:01.098Z,3.87
2019-02-08T22:58:30.091Z,3.40
2019-02-08T23:01:42.948Z,2.60
2019-02-08T23:04:11.531Z,3.05
2019-02-08T23:06:44.964Z,2.83
2019-02-08T23:09:19.487Z,2.50
2019-02-08T23:11:48.038Z,2.87
2019-02-08T23:14:16.588Z,3.35
2019-02-08T23:16:45.187Z,2.87
2019-02-08T23:19:13.737Z,2.37
2019-02-08T23:21:42.328Z,2.67
2019-02-08T23:24:10.904Z,3.27
2019-02-08T23:26:39.485Z,3.50
2019-02-08T23:29:08.019Z,3.17
2019-02-08T23:31:36.606Z,3.30
2019-02-08T23:34:05.178Z,3.55
2019-02-08T23:36:33.723Z,3.00
2019-02-08T23:39:02.300Z,3.83
2019-02-08T23:41:30.846Z,2.90
2019-02-08T23:43:59.420Z,3.22
2019-02-08T23:46:27.971Z,3.17
2019-02-08T23:48:56.557Z,2.87
2019-02-08T23:51:25.099Z,3.00
2019-02-08T23:53:53.652Z,2.87
2019-02-08T23:56:22.751Z,3.50
2019-02-08T23:58:51.291Z,2.77
